sensor_id;sensor_type;location;lat;lon;timestamp;P1;durP1;ratioP1;P2;durP2;ratioP2
41233;SDS011;26968;42.686;23.352;2022-12-07T00:01:08;52.20;;;23.23;;
41233;SDS011;26968;42.686;23.352;2022-12-07T00:03:38;51.97;;;22.38;;
41233;SDS011;26968;42.686;23.352;2022-12-07T00:06:05;56.17;;;23.88;;
41233;SDS011;26968;42.686;23.352;2022-12-07T00:08:32;53.90;;;24.90;;
41233;SDS011;26968;42.686;23.352;2022-12-07T00:11:09;59.83;;;24.88;;
41233;SDS011;26968;42.686;23.352;2022-12-07T00:13:37;56.83;;;22.90;;
41233;SDS011;26968;42.686;23.352;2022-12-07T00:16:05;64.55;;;23.27;;
41233;SDS011;26968;42.686;23.352;2022-12-07T00:18:32;57.40;;;21.55;;
41233;SDS011;26968;42.686;23.352;2022-12-07T00:21:00;45.75;;;21.67;;
41233;SDS011;26968;42.686;23.352;2022-12-07T00:23:29;47.92;;;20.95;;
41233;SDS011;26968;42.686;23.352;2022-12-07T00:25:55;53.92;;;20.75;;
41233;SDS011;26968;42.686;23.352;2022-12-07T00:28:21;46.85;;;21.90;;
41233;SDS011;26968;42.686;23.352;2022-12-07T00:30:48;51.17;;;22.70;;
41233;SDS011;26968;42.686;23.352;2022-12-07T00:33:15;49.35;;;21.38;;
41233;SDS011;26968;42.686;23.352;2022-12-07T00:35:40;46.38;;;21.45;;
41233;SDS011;26968;42.686;23.352;2022-12-07T00:38:06;54.42;;;20.38;;
41233;SDS011;26968;42.686;23.352;2022-12-07T00:40:32;45.30;;;21.73;;
41233;SDS011;26968;42.686;23.352;2022-12-07T00:42:58;44.85;;;21.05;;
41233;SDS011;26968;42.686;23.352;2022-12-07T00:45:23;46.75;;;20.55;;
41233;SDS011;26968;42.686;23.352;2022-12-07T00:47:50;50.92;;;21.58;;
41233;SDS011;26968;42.686;23.352;2022-12-07T00:50:15;51.97;;;19.77;;
41233;SDS011;26968;42.686;23.352;2022-12-07T00:52:41;44.53;;;20.05;;
41233;SDS011;26968;42.686;23.352;2022-12-07T00:55:07;48.13;;;20.55;;
41233;SDS011;26968;42.686;23.352;2022-12-07T00:57:33;41.58;;;20.33;;
41233;SDS011;26968;42.686;23.352;2022-12-07T00:59:58;46.88;;;21.13;;
41233;SDS011;26968;42.686;23.352;2022-12-07T01:02:25;46.80;;;19.67;;
41233;SDS011;26968;42.686;23.352;2022-12-07T01:04:50;49.63;;;21.27;;
41233;SDS011;26968;42.686;23.352;2022-12-07T01:07:16;47.65;;;20.73;;
41233;SDS011;26968;42.686;23.352;2022-12-07T01:09:41;49.80;;;21.20;;
41233;SDS011;26968;42.686;23.352;2022-12-07T01:12:07;45.30;;;19.50;;
41233;SDS011;26968;42.686;23.352;2022-12-07T01:14:32;48.60;;;20.52;;
41233;SDS011;26968;42.686;23.352;2022-12-07T01:17:00;49.97;;;21.00;;
41233;SDS011;26968;42.686;23.352;2022-12-07T01:19:29;42.53;;;19.98;;
41233;SDS011;26968;42.686;23.352;2022-12-07T01:21:55;45.30;;;20.38;;
41233;SDS011;26968;42.686;23.352;2022-12-07T01:24:20;56.35;;;21.65;;
41233;SDS011;26968;42.686;23.352;2022-12-07T01:26:46;50.63;;;21.42;;
41233;SDS011;26968;42.686;23.352;2022-12-07T01:29:14;48.13;;;21.55;;
41233;SDS011;26968;42.686;23.352;2022-12-07T01:31:39;54.53;;;22.23;;
41233;SDS011;26968;42.686;23.352;2022-12-07T01:34:05;49.65;;;21.42;;
41233;SDS011;26968;42.686;23.352;2022-12-07T01:36:32;52.97;;;20.58;;
41233;SDS011;26968;42.686;23.352;2022-12-07T01:39:00;45.92;;;21.00;;
41233;SDS011;26968;42.686;23.352;2022-12-07T01:41:30;49.10;;;21.42;;
41233;SDS011;26968;42.686;23.352;2022-12-07T01:47:04;47.08;;;20.63;;
41233;SDS011;26968;42.686;23.352;2022-12-07T01:50:03;46.72;;;21.08;;
41233;SDS011;26968;42.686;23.352;2022-12-07T01:52:26;49.28;;;20.75;;
41233;SDS011;26968;42.686;23.352;2022-12-07T01:54:58;50.10;;;22.23;;
41233;SDS011;26968;42.686;23.352;2022-12-07T01:57:29;50.20;;;21.17;;
41233;SDS011;26968;42.686;23.352;2022-12-07T01:59:58;50.30;;;21.15;;
41233;SDS011;26968;42.686;23.352;2022-12-07T02:02:30;46.58;;;20.92;;
41233;SDS011;26968;42.686;23.352;2022-12-07T02:04:59;51.95;;;20.30;;
41233;SDS011;26968;42.686;23.352;2022-12-07T02:07:26;50.63;;;21.63;;
41233;SDS011;26968;42.686;23.352;2022-12-07T02:09:53;45.60;;;20.65;;
41233;SDS011;26968;42.686;23.352;2022-12-07T02:12:19;47.75;;;20.77;;
41233;SDS011;26968;42.686;23.352;2022-12-07T02:14:47;41.85;;;20.55;;
41233;SDS011;26968;42.686;23.352;2022-12-07T02:27:47;52.38;;;21.27;;
41233;SDS011;26968;42.686;23.352;2022-12-07T02:30:21;43.58;;;21.30;;
41233;SDS011;26968;42.686;23.352;2022-12-07T02:38:18;41.05;;;20.05;;
41233;SDS011;26968;42.686;23.352;2022-12-07T02:40:54;46.35;;;20.15;;
41233;SDS011;26968;42.686;23.352;2022-12-07T02:43:26;44.08;;;20.85;;
41233;SDS011;26968;42.686;23.352;2022-12-07T02:46:07;50.33;;;22.65;;
41233;SDS011;26968;42.686;23.352;2022-12-07T02:48:36;45.85;;;21.00;;
41233;SDS011;26968;42.686;23.352;2022-12-07T02:51:03;48.10;;;21.73;;
41233;SDS011;26968;42.686;23.352;2022-12-07T02:53:30;49.25;;;21.50;;
41233;SDS011;26968;42.686;23.352;2022-12-07T02:56:02;45.50;;;20.63;;
41233;SDS011;26968;42.686;23.352;2022-12-07T03:04:43;45.22;;;21.30;;
41233;SDS011;26968;42.686;23.352;2022-12-07T03:12:36;49.75;;;21.63;;
41233;SDS011;26968;42.686;23.352;2022-12-07T03:15:29;47.42;;;22.20;;
41233;SDS011;26968;42.686;23.352;2022-12-07T03:17:59;54.38;;;20.98;;
41233;SDS011;26968;42.686;23.352;2022-12-07T03:20:28;55.30;;;22.67;;
41233;SDS011;26968;42.686;23.352;2022-12-07T03:22:54;46.85;;;22.17;;
41233;SDS011;26968;42.686;23.352;2022-12-07T03:25:22;48.50;;;23.30;;
41233;SDS011;26968;42.686;23.352;2022-12-07T03:27:55;50.58;;;21.63;;
41233;SDS011;26968;42.686;23.352;2022-12-07T03:30:28;49.50;;;21.98;;
41233;SDS011;26968;42.686;23.352;2022-12-07T03:33:06;56.17;;;22.70;;
41233;SDS011;26968;42.686;23.352;2022-12-07T03:35:39;51.35;;;20.83;;
41233;SDS011;26968;42.686;23.352;2022-12-07T03:40:58;61.63;;;23.45;;
41233;SDS011;26968;42.686;23.352;2022-12-07T03:43:28;55.25;;;23.50;;
41233;SDS011;26968;42.686;23.352;2022-12-07T03:48:22;51.95;;;23.33;;
41233;SDS011;26968;42.686;23.352;2022-12-07T03:50:55;56.08;;;24.05;;
41233;SDS011;26968;42.686;23.352;2022-12-07T03:53:27;47.65;;;22.20;;
41233;SDS011;26968;42.686;23.352;2022-12-07T03:55:58;53.80;;;22.30;;
41233;SDS011;26968;42.686;23.352;2022-12-07T03:58:24;50.70;;;23.95;;
41233;SDS011;26968;42.686;23.352;2022-12-07T04:00:50;49.25;;;22.98;;
41233;SDS011;26968;42.686;23.352;2022-12-07T04:03:16;57.05;;;25.00;;
41233;SDS011;26968;42.686;23.352;2022-12-07T04:05:42;53.72;;;23.77;;
41233;SDS011;26968;42.686;23.352;2022-12-07T04:08:08;62.45;;;25.83;;
41233;SDS011;26968;42.686;23.352;2022-12-07T04:10:34;75.20;;;25.30;;
41233;SDS011;26968;42.686;23.352;2022-12-07T04:13:00;59.85;;;24.10;;
41233;SDS011;26968;42.686;23.352;2022-12-07T04:15:25;62.28;;;24.65;;
41233;SDS011;26968;42.686;23.352;2022-12-07T04:17:50;60.75;;;23.70;;
41233;SDS011;26968;42.686;23.352;2022-12-07T04:20:16;59.08;;;24.00;;
41233;SDS011;26968;42.686;23.352;2022-12-07T04:22:42;72.82;;;27.30;;
41233;SDS011;26968;42.686;23.352;2022-12-07T04:25:07;59.90;;;23.50;;
41233;SDS011;26968;42.686;23.352;2022-12-07T04:27:33;49.80;;;24.30;;
41233;SDS011;26968;42.686;23.352;2022-12-07T04:29:59;54.17;;;24.60;;
41233;SDS011;26968;42.686;23.352;2022-12-07T04:32:24;51.47;;;24.00;;
41233;SDS011;26968;42.686;23.352;2022-12-07T04:34:50;59.22;;;26.23;;
41233;SDS011;26968;42.686;23.352;2022-12-07T04:37:15;58.63;;;24.48;;
41233;SDS011;26968;42.686;23.352;2022-12-07T04:39:42;62.28;;;26.85;;
41233;SDS011;26968;42.686;23.352;2022-12-07T04:42:09;61.22;;;24.95;;
41233;SDS011;26968;42.686;23.352;2022-12-07T04:44:35;61.30;;;25.52;;
41233;SDS011;26968;42.686;23.352;2022-12-07T04:47:01;58.55;;;25.13;;
41233;SDS011;26968;42.686;23.352;2022-12-07T04:49:27;62.47;;;24.25;;
41233;SDS011;26968;42.686;23.352;2022-12-07T04:51:52;58.33;;;26.33;;
41233;SDS011;26968;42.686;23.352;2022-12-07T04:54:18;55.90;;;24.92;;
41233;SDS011;26968;42.686;23.352;2022-12-07T04:56:43;60.78;;;26.38;;
41233;SDS011;26968;42.686;23.352;2022-12-07T04:59:10;67.45;;;26.63;;
41233;SDS011;26968;42.686;23.352;2022-12-07T05:01:36;66.72;;;25.40;;
41233;SDS011;26968;42.686;23.352;2022-12-07T05:04:02;60.88;;;26.77;;
41233;SDS011;26968;42.686;23.352;2022-12-07T05:06:27;60.65;;;26.00;;
41233;SDS011;26968;42.686;23.352;2022-12-07T05:08:53;63.92;;;26.20;;
41233;SDS011;26968;42.686;23.352;2022-12-07T05:11:18;59.20;;;26.80;;
41233;SDS011;26968;42.686;23.352;2022-12-07T05:17:24;75.53;;;28.42;;
41233;SDS011;26968;42.686;23.352;2022-12-07T05:19:50;71.25;;;26.73;;
41233;SDS011;26968;42.686;23.352;2022-12-07T05:22:15;86.28;;;28.90;;
41233;SDS011;26968;42.686;23.352;2022-12-07T05:24:40;67.60;;;26.98;;
41233;SDS011;26968;42.686;23.352;2022-12-07T05:27:06;66.85;;;25.83;;
41233;SDS011;26968;42.686;23.352;2022-12-07T05:29:31;63.35;;;27.65;;
41233;SDS011;26968;42.686;23.352;2022-12-07T05:31:57;66.80;;;28.17;;
41233;SDS011;26968;42.686;23.352;2022-12-07T05:34:22;79.82;;;29.80;;
41233;SDS011;26968;42.686;23.352;2022-12-07T05:36:48;72.55;;;26.88;;
41233;SDS011;26968;42.686;23.352;2022-12-07T05:39:14;78.43;;;29.88;;
41233;SDS011;26968;42.686;23.352;2022-12-07T05:41:39;71.90;;;28.48;;
41233;SDS011;26968;42.686;23.352;2022-12-07T05:44:23;69.07;;;27.15;;
41233;SDS011;26968;42.686;23.352;2022-12-07T05:46:48;71.18;;;27.58;;
41233;SDS011;26968;42.686;23.352;2022-12-07T05:49:14;66.35;;;27.27;;
41233;SDS011;26968;42.686;23.352;2022-12-07T05:51:39;69.15;;;27.80;;
41233;SDS011;26968;42.686;23.352;2022-12-07T05:54:05;60.70;;;27.60;;
41233;SDS011;26968;42.686;23.352;2022-12-07T05:56:31;69.32;;;28.13;;
41233;SDS011;26968;42.686;23.352;2022-12-07T05:58:56;82.90;;;28.70;;
41233;SDS011;26968;42.686;23.352;2022-12-07T06:01:40;65.32;;;26.55;;
41233;SDS011;26968;42.686;23.352;2022-12-07T06:04:06;62.10;;;24.85;;
41233;SDS011;26968;42.686;23.352;2022-12-07T06:06:31;60.05;;;26.23;;
41233;SDS011;26968;42.686;23.352;2022-12-07T06:08:56;69.70;;;27.67;;
41233;SDS011;26968;42.686;23.352;2022-12-07T06:11:22;77.25;;;28.92;;
41233;SDS011;26968;42.686;23.352;2022-12-07T06:14:06;63.63;;;26.70;;
41233;SDS011;26968;42.686;23.352;2022-12-07T06:16:31;63.80;;;28.25;;
41233;SDS011;26968;42.686;23.352;2022-12-07T06:18:59;71.65;;;28.40;;
41233;SDS011;26968;42.686;23.352;2022-12-07T06:21:24;64.30;;;27.98;;
41233;SDS011;26968;42.686;23.352;2022-12-07T06:23:51;60.42;;;29.50;;
41233;SDS011;26968;42.686;23.352;2022-12-07T06:26:17;71.70;;;28.83;;
41233;SDS011;26968;42.686;23.352;2022-12-07T06:28:42;75.97;;;29.52;;
41233;SDS011;26968;42.686;23.352;2022-12-07T06:31:08;64.90;;;29.65;;
41233;SDS011;26968;42.686;23.352;2022-12-07T06:33:33;63.50;;;28.75;;
41233;SDS011;26968;42.686;23.352;2022-12-07T06:35:59;71.07;;;27.60;;
41233;SDS011;26968;42.686;23.352;2022-12-07T06:38:24;71.47;;;28.52;;
41233;SDS011;26968;42.686;23.352;2022-12-07T06:40:50;61.20;;;27.00;;
41233;SDS011;26968;42.686;23.352;2022-12-07T06:43:16;68.40;;;30.10;;
41233;SDS011;26968;42.686;23.352;2022-12-07T06:45:41;86.40;;;31.55;;
41233;SDS011;26968;42.686;23.352;2022-12-07T06:48:07;64.03;;;28.05;;
41233;SDS011;26968;42.686;23.352;2022-12-07T06:50:32;77.57;;;29.20;;
41233;SDS011;26968;42.686;23.352;2022-12-07T06:52:58;76.95;;;32.85;;
41233;SDS011;26968;42.686;23.352;2022-12-07T06:55:23;107.35;;;36.03;;
41233;SDS011;26968;42.686;23.352;2022-12-07T06:57:49;67.07;;;28.58;;
41233;SDS011;26968;42.686;23.352;2022-12-07T07:00:14;84.85;;;31.95;;
41233;SDS011;26968;42.686;23.352;2022-12-07T07:02:40;86.40;;;28.98;;
41233;SDS011;26968;42.686;23.352;2022-12-07T07:05:05;65.40;;;30.50;;
41233;SDS011;26968;42.686;23.352;2022-12-07T07:07:31;82.20;;;31.65;;
41233;SDS011;26968;42.686;23.352;2022-12-07T07:09:57;70.63;;;30.08;;
41233;SDS011;26968;42.686;23.352;2022-12-07T07:12:22;75.78;;;30.75;;
41233;SDS011;26968;42.686;23.352;2022-12-07T07:14:47;78.13;;;29.25;;
41233;SDS011;26968;42.686;23.352;2022-12-07T07:17:13;70.45;;;30.83;;
41233;SDS011;26968;42.686;23.352;2022-12-07T07:19:38;70.63;;;28.27;;
41233;SDS011;26968;42.686;23.352;2022-12-07T07:22:04;75.65;;;31.48;;
41233;SDS011;26968;42.686;23.352;2022-12-07T07:24:29;74.15;;;32.45;;
41233;SDS011;26968;42.686;23.352;2022-12-07T07:26:55;80.97;;;30.98;;
41233;SDS011;26968;42.686;23.352;2022-12-07T07:29:20;73.07;;;30.48;;
41233;SDS011;26968;42.686;23.352;2022-12-07T07:31:46;96.82;;;31.58;;
41233;SDS011;26968;42.686;23.352;2022-12-07T07:34:11;76.32;;;30.33;;
41233;SDS011;26968;42.686;23.352;2022-12-07T07:36:37;78.75;;;33.58;;
41233;SDS011;26968;42.686;23.352;2022-12-07T07:39:04;84.10;;;35.67;;
41233;SDS011;26968;42.686;23.352;2022-12-07T07:41:30;80.93;;;37.50;;
41233;SDS011;26968;42.686;23.352;2022-12-07T07:43:56;88.25;;;37.88;;
41233;SDS011;26968;42.686;23.352;2022-12-07T07:46:22;77.13;;;34.15;;
41233;SDS011;26968;42.686;23.352;2022-12-07T07:48:47;98.20;;;39.88;;
41233;SDS011;26968;42.686;23.352;2022-12-07T07:51:14;106.65;;;43.28;;
41233;SDS011;26968;42.686;23.352;2022-12-07T07:53:39;80.65;;;34.85;;
41233;SDS011;26968;42.686;23.352;2022-12-07T07:56:13;94.63;;;38.35;;
41233;SDS011;26968;42.686;23.352;2022-12-07T07:58:39;92.13;;;41.13;;
41233;SDS011;26968;42.686;23.352;2022-12-07T08:01:05;87.88;;;39.03;;
41233;SDS011;26968;42.686;23.352;2022-12-07T08:03:31;94.05;;;42.10;;
41233;SDS011;26968;42.686;23.352;2022-12-07T08:06:04;94.10;;;40.15;;
41233;SDS011;26968;42.686;23.352;2022-12-07T08:08:30;94.25;;;41.13;;
41233;SDS011;26968;42.686;23.352;2022-12-07T08:10:56;84.00;;;36.28;;
41233;SDS011;26968;42.686;23.352;2022-12-07T08:13:25;88.03;;;37.92;;
41233;SDS011;26968;42.686;23.352;2022-12-07T08:15:51;86.85;;;37.95;;
41233;SDS011;26968;42.686;23.352;2022-12-07T08:18:16;84.53;;;37.50;;
41233;SDS011;26968;42.686;23.352;2022-12-07T08:20:42;99.47;;;36.90;;
41233;SDS011;26968;42.686;23.352;2022-12-07T08:23:07;87.50;;;37.65;;
41233;SDS011;26968;42.686;23.352;2022-12-07T08:25:35;78.13;;;36.72;;
41233;SDS011;26968;42.686;23.352;2022-12-07T08:28:00;85.82;;;37.80;;
41233;SDS011;26968;42.686;23.352;2022-12-07T08:30:27;75.93;;;36.85;;
41233;SDS011;26968;42.686;23.352;2022-12-07T08:32:53;79.57;;;36.90;;
41233;SDS011;26968;42.686;23.352;2022-12-07T08:35:19;91.75;;;38.92;;
41233;SDS011;26968;42.686;23.352;2022-12-07T08:37:44;81.40;;;36.28;;
41233;SDS011;26968;42.686;23.352;2022-12-07T08:40:10;83.55;;;37.45;;
41233;SDS011;26968;42.686;23.352;2022-12-07T08:42:40;88.75;;;38.97;;
41233;SDS011;26968;42.686;23.352;2022-12-07T08:45:08;93.25;;;38.40;;
41233;SDS011;26968;42.686;23.352;2022-12-07T08:47:36;78.63;;;37.25;;
41233;SDS011;26968;42.686;23.352;2022-12-07T08:50:05;76.45;;;35.58;;
41233;SDS011;26968;42.686;23.352;2022-12-07T08:52:33;85.55;;;35.72;;
41233;SDS011;26968;42.686;23.352;2022-12-07T08:55:03;91.47;;;37.22;;
41233;SDS011;26968;42.686;23.352;2022-12-07T08:57:30;87.20;;;37.63;;
41233;SDS011;26968;42.686;23.352;2022-12-07T08:59:58;95.88;;;39.13;;
41233;SDS011;26968;42.686;23.352;2022-12-07T09:02:24;90.47;;;36.05;;
41233;SDS011;26968;42.686;23.352;2022-12-07T09:04:49;82.00;;;36.47;;
41233;SDS011;26968;42.686;23.352;2022-12-07T09:07:14;88.93;;;36.72;;
41233;SDS011;26968;42.686;23.352;2022-12-07T09:09:40;81.90;;;33.80;;
41233;SDS011;26968;42.686;23.352;2022-12-07T09:12:06;77.18;;;34.92;;
41233;SDS011;26968;42.686;23.352;2022-12-07T09:14:31;80.00;;;35.50;;
41233;SDS011;26968;42.686;23.352;2022-12-07T09:17:04;71.50;;;34.60;;
41233;SDS011;26968;42.686;23.352;2022-12-07T09:19:31;87.22;;;35.15;;
41233;SDS011;26968;42.686;23.352;2022-12-07T09:21:57;81.13;;;37.50;;
41233;SDS011;26968;42.686;23.352;2022-12-07T09:24:22;84.38;;;37.58;;
41233;SDS011;26968;42.686;23.352;2022-12-07T09:26:47;71.25;;;37.13;;
41233;SDS011;26968;42.686;23.352;2022-12-07T09:29:13;92.75;;;40.70;;
41233;SDS011;26968;42.686;23.352;2022-12-07T09:31:38;96.40;;;38.63;;
41233;SDS011;26968;42.686;23.352;2022-12-07T09:34:04;95.32;;;37.47;;
41233;SDS011;26968;42.686;23.352;2022-12-07T09:36:31;88.32;;;37.97;;
41233;SDS011;26968;42.686;23.352;2022-12-07T09:38:56;92.80;;;38.45;;
41233;SDS011;26968;42.686;23.352;2022-12-07T09:41:22;87.47;;;37.47;;
41233;SDS011;26968;42.686;23.352;2022-12-07T09:43:50;87.60;;;36.58;;
41233;SDS011;26968;42.686;23.352;2022-12-07T09:46:17;98.10;;;39.80;;
41233;SDS011;26968;42.686;23.352;2022-12-07T09:48:45;86.38;;;39.83;;
41233;SDS011;26968;42.686;23.352;2022-12-07T09:51:21;110.05;;;44.38;;
41233;SDS011;26968;42.686;23.352;2022-12-07T09:53:48;102.00;;;44.67;;
41233;SDS011;26968;42.686;23.352;2022-12-07T09:56:15;97.57;;;44.00;;
41233;SDS011;26968;42.686;23.352;2022-12-07T09:58:42;92.25;;;42.38;;
41233;SDS011;26968;42.686;23.352;2022-12-07T10:03:35;97.10;;;41.30;;
41233;SDS011;26968;42.686;23.352;2022-12-07T10:06:03;84.97;;;40.63;;
41233;SDS011;26968;42.686;23.352;2022-12-07T10:08:30;83.47;;;39.55;;
41233;SDS011;26968;42.686;23.352;2022-12-07T10:10:59;92.88;;;39.70;;
41233;SDS011;26968;42.686;23.352;2022-12-07T10:31:42;73.82;;;34.90;;
41233;SDS011;26968;42.686;23.352;2022-12-07T10:34:27;71.88;;;35.13;;
41233;SDS011;26968;42.686;23.352;2022-12-07T10:37:17;70.57;;;31.73;;
41233;SDS011;26968;42.686;23.352;2022-12-07T10:44:49;62.10;;;28.38;;
41233;SDS011;26968;42.686;23.352;2022-12-07T10:53:47;53.15;;;25.88;;
41233;SDS011;26968;42.686;23.352;2022-12-07T10:56:29;59.65;;;26.13;;
41233;SDS011;26968;42.686;23.352;2022-12-07T10:59:24;61.33;;;25.92;;
41233;SDS011;26968;42.686;23.352;2022-12-07T11:07:43;61.70;;;28.00;;
41233;SDS011;26968;42.686;23.352;2022-12-07T11:10:34;60.75;;;27.23;;
41233;SDS011;26968;42.686;23.352;2022-12-07T11:13:25;56.83;;;24.70;;
41233;SDS011;26968;42.686;23.352;2022-12-07T11:22:20;55.85;;;26.90;;
41233;SDS011;26968;42.686;23.352;2022-12-07T11:30:23;54.28;;;24.17;;
41233;SDS011;26968;42.686;23.352;2022-12-07T11:35:34;46.10;;;23.83;;
41233;SDS011;26968;42.686;23.352;2022-12-07T11:38:17;57.40;;;21.92;;
41233;SDS011;26968;42.686;23.352;2022-12-07T11:40:47;59.67;;;24.05;;
41233;SDS011;26968;42.686;23.352;2022-12-07T11:43:22;52.90;;;23.67;;
41233;SDS011;26968;42.686;23.352;2022-12-07T11:45:55;54.53;;;24.15;;
41233;SDS011;26968;42.686;23.352;2022-12-07T11:51:02;54.38;;;21.73;;
41233;SDS011;26968;42.686;23.352;2022-12-07T11:53:37;52.22;;;21.88;;
41233;SDS011;26968;42.686;23.352;2022-12-07T11:56:15;51.42;;;21.13;;
41233;SDS011;26968;42.686;23.352;2022-12-07T12:17:19;41.72;;;18.58;;
41233;SDS011;26968;42.686;23.352;2022-12-07T12:22:59;33.60;;;18.20;;
41233;SDS011;26968;42.686;23.352;2022-12-07T12:25:37;40.53;;;18.10;;
41233;SDS011;26968;42.686;23.352;2022-12-07T12:28:10;35.75;;;18.33;;
41233;SDS011;26968;42.686;23.352;2022-12-07T12:33:42;37.28;;;18.55;;
41233;SDS011;26968;42.686;23.352;2022-12-07T12:38:49;40.58;;;18.55;;
41233;SDS011;26968;42.686;23.352;2022-12-07T12:46:59;44.45;;;21.60;;
41233;SDS011;26968;42.686;23.352;2022-12-07T12:54:23;43.28;;;20.50;;
41233;SDS011;26968;42.686;23.352;2022-12-07T12:57:08;44.78;;;17.92;;
41233;SDS011;26968;42.686;23.352;2022-12-07T13:05:20;37.55;;;18.40;;
41233;SDS011;26968;42.686;23.352;2022-12-07T13:08:11;35.30;;;17.30;;
41233;SDS011;26968;42.686;23.352;2022-12-07T13:10:49;40.33;;;16.58;;
41233;SDS011;26968;42.686;23.352;2022-12-07T13:23:29;29.67;;;15.32;;
41233;SDS011;26968;42.686;23.352;2022-12-07T13:29:12;45.20;;;19.60;;
41233;SDS011;26968;42.686;23.352;2022-12-07T13:31:46;44.00;;;20.75;;
41233;SDS011;26968;42.686;23.352;2022-12-07T13:39:33;36.38;;;17.45;;
41233;SDS011;26968;42.686;23.352;2022-12-07T13:42:13;34.35;;;17.48;;
41233;SDS011;26968;42.686;23.352;2022-12-07T13:44:46;34.53;;;15.85;;
41233;SDS011;26968;42.686;23.352;2022-12-07T13:47:20;33.47;;;15.82;;
41233;SDS011;26968;42.686;23.352;2022-12-07T13:49:57;31.65;;;16.30;;
41233;SDS011;26968;42.686;23.352;2022-12-07T13:52:27;29.23;;;15.18;;
41233;SDS011;26968;42.686;23.352;2022-12-07T13:54:57;30.25;;;14.65;;
41233;SDS011;26968;42.686;23.352;2022-12-07T13:57:27;39.50;;;16.30;;
41233;SDS011;26968;42.686;23.352;2022-12-07T13:59:58;40.83;;;16.45;;
41233;SDS011;26968;42.686;23.352;2022-12-07T14:02:26;39.85;;;15.98;;
41233;SDS011;26968;42.686;23.352;2022-12-07T14:05:09;33.38;;;15.27;;
41233;SDS011;26968;42.686;23.352;2022-12-07T14:08:41;33.47;;;16.65;;
41233;SDS011;26968;42.686;23.352;2022-12-07T14:15:53;32.75;;;15.38;;
41233;SDS011;26968;42.686;23.352;2022-12-07T14:18:36;45.58;;;16.67;;
41233;SDS011;26968;42.686;23.352;2022-12-07T14:23:34;40.45;;;16.65;;
41233;SDS011;26968;42.686;23.352;2022-12-07T14:26:08;37.38;;;18.02;;
41233;SDS011;26968;42.686;23.352;2022-12-07T14:28:38;35.55;;;15.48;;
41233;SDS011;26968;42.686;23.352;2022-12-07T14:31:10;34.58;;;16.40;;
41233;SDS011;26968;42.686;23.352;2022-12-07T14:33:38;38.35;;;17.63;;
41233;SDS011;26968;42.686;23.352;2022-12-07T14:36:04;42.42;;;17.63;;
41233;SDS011;26968;42.686;23.352;2022-12-07T14:38:30;37.25;;;17.73;;
41233;SDS011;26968;42.686;23.352;2022-12-07T14:40:55;39.47;;;17.40;;
41233;SDS011;26968;42.686;23.352;2022-12-07T14:43:44;34.50;;;15.40;;
41233;SDS011;26968;42.686;23.352;2022-12-07T14:46:12;36.92;;;16.58;;
41233;SDS011;26968;42.686;23.352;2022-12-07T14:48:40;41.85;;;17.50;;
41233;SDS011;26968;42.686;23.352;2022-12-07T14:51:07;38.08;;;16.95;;
41233;SDS011;26968;42.686;23.352;2022-12-07T14:53:39;51.57;;;18.27;;
41233;SDS011;26968;42.686;23.352;2022-12-07T14:56:07;45.03;;;16.25;;
41233;SDS011;26968;42.686;23.352;2022-12-07T14:58:33;41.50;;;16.23;;
41233;SDS011;26968;42.686;23.352;2022-12-07T15:00:59;40.97;;;17.70;;
41233;SDS011;26968;42.686;23.352;2022-12-07T15:03:25;39.85;;;17.70;;
41233;SDS011;26968;42.686;23.352;2022-12-07T15:05:51;60.80;;;20.45;;
41233;SDS011;26968;42.686;23.352;2022-12-07T15:08:17;55.83;;;18.30;;
41233;SDS011;26968;42.686;23.352;2022-12-07T15:10:43;58.75;;;20.65;;
41233;SDS011;26968;42.686;23.352;2022-12-07T15:13:08;61.83;;;21.02;;
41233;SDS011;26968;42.686;23.352;2022-12-07T15:15:54;62.10;;;25.80;;
41233;SDS011;26968;42.686;23.352;2022-12-07T15:18:21;62.03;;;24.00;;
41233;SDS011;26968;42.686;23.352;2022-12-07T15:20:49;73.32;;;30.00;;
41233;SDS011;26968;42.686;23.352;2022-12-07T15:23:16;64.75;;;30.63;;
41233;SDS011;26968;42.686;23.352;2022-12-07T15:25:44;65.38;;;24.92;;
41233;SDS011;26968;42.686;23.352;2022-12-07T15:28:11;74.10;;;25.08;;
41233;SDS011;26968;42.686;23.352;2022-12-07T15:30:38;54.78;;;23.70;;
41233;SDS011;26968;42.686;23.352;2022-12-07T15:33:08;62.95;;;22.90;;
41233;SDS011;26968;42.686;23.352;2022-12-07T15:35:38;59.60;;;23.25;;
41233;SDS011;26968;42.686;23.352;2022-12-07T15:38:07;63.80;;;21.52;;
41233;SDS011;26968;42.686;23.352;2022-12-07T15:40:33;58.47;;;20.33;;
41233;SDS011;26968;42.686;23.352;2022-12-07T15:43:00;60.63;;;24.90;;
41233;SDS011;26968;42.686;23.352;2022-12-07T15:45:26;59.83;;;21.63;;
41233;SDS011;26968;42.686;23.352;2022-12-07T15:47:51;71.10;;;22.33;;
41233;SDS011;26968;42.686;23.352;2022-12-07T15:50:17;56.38;;;21.45;;
41233;SDS011;26968;42.686;23.352;2022-12-07T15:52:45;63.03;;;22.40;;
41233;SDS011;26968;42.686;23.352;2022-12-07T15:55:10;64.22;;;23.30;;
41233;SDS011;26968;42.686;23.352;2022-12-07T15:57:36;52.20;;;20.73;;
41233;SDS011;26968;42.686;23.352;2022-12-07T16:00:04;59.05;;;23.05;;
41233;SDS011;26968;42.686;23.352;2022-12-07T16:02:32;62.03;;;23.83;;
41233;SDS011;26968;42.686;23.352;2022-12-07T16:04:58;74.82;;;25.83;;
41233;SDS011;26968;42.686;23.352;2022-12-07T16:07:23;73.22;;;25.08;;
41233;SDS011;26968;42.686;23.352;2022-12-07T16:09:49;80.72;;;28.70;;
41233;SDS011;26968;42.686;23.352;2022-12-07T16:12:15;81.05;;;27.67;;
41233;SDS011;26968;42.686;23.352;2022-12-07T16:14:42;67.13;;;23.08;;
41233;SDS011;26968;42.686;23.352;2022-12-07T16:17:07;70.45;;;24.25;;
41233;SDS011;26968;42.686;23.352;2022-12-07T16:19:34;62.20;;;27.85;;
41233;SDS011;26968;42.686;23.352;2022-12-07T16:22:00;77.25;;;29.92;;
41233;SDS011;26968;42.686;23.352;2022-12-07T16:24:26;75.82;;;30.40;;
41233;SDS011;26968;42.686;23.352;2022-12-07T16:26:52;81.22;;;30.45;;
41233;SDS011;26968;42.686;23.352;2022-12-07T16:29:19;82.57;;;30.98;;
41233;SDS011;26968;42.686;23.352;2022-12-07T16:31:46;81.30;;;31.15;;
41233;SDS011;26968;42.686;23.352;2022-12-07T16:34:13;78.22;;;31.13;;
41233;SDS011;26968;42.686;23.352;2022-12-07T16:36:39;108.20;;;34.28;;
41233;SDS011;26968;42.686;23.352;2022-12-07T16:39:05;81.88;;;30.48;;
41233;SDS011;26968;42.686;23.352;2022-12-07T16:41:31;75.90;;;30.20;;
41233;SDS011;26968;42.686;23.352;2022-12-07T16:44:01;100.40;;;29.98;;
41233;SDS011;26968;42.686;23.352;2022-12-07T16:46:28;83.47;;;31.58;;
41233;SDS011;26968;42.686;23.352;2022-12-07T16:48:53;79.35;;;30.48;;
41233;SDS011;26968;42.686;23.352;2022-12-07T16:51:20;88.60;;;31.45;;
41233;SDS011;26968;42.686;23.352;2022-12-07T16:53:46;101.22;;;35.05;;
41233;SDS011;26968;42.686;23.352;2022-12-07T16:56:13;80.13;;;34.97;;
41233;SDS011;26968;42.686;23.352;2022-12-07T16:58:42;80.63;;;32.15;;
41233;SDS011;26968;42.686;23.352;2022-12-07T17:01:08;90.60;;;38.15;;